Airport View

Enter AWOS ICAO identifier for current METAR.

ex. KFNL

CYQH 201100Z 11005KT 15SM SCT057 OVC140 M02/M04 A2982 RMK SC3AC5 SLP143

20 Nov 2019 11:15

Other Area AWOS: CWZV

TAF CYQH 200538Z 2006/2018 11005KT P6SM SCT040 BKN080 TEMPO 2006/2009 5SM -SN FM200900 11005KT P6SM BKN040 RMK NXT FCST BY 201200Z